Time;durP1;ratioP1;P1;durP2;ratioP2;P2;SDS_P1;SDS_P2;PMS_P1;PMS_P2;Temp;Humidity;BMP_temperature;BMP_pressure;BME280_temperature;BME280_humidity;BME280_pressure;Samples;Min_cycle;Max_cycle;Signal;HPM_P1;HPM_P2
2023/08/07 00:01:53;;;;;;;11.57;11.10;;;;;;;;;;5033135;28;20428;-40
2023/08/07 00:04:21;;;;;;;12.03;11.63;;;;;;;;;;5032957;28;20463;-41
2023/08/07 00:06:50;;;;;;;11.93;11.37;;;;;;;;;;5033188;28;21019;-43
2023/08/07 00:09:17;;;;;;;12.43;11.77;;;;;;;;;;5032217;28;20530;-43
2023/08/07 00:11:45;;;;;;;12.07;11.57;;;;;;;;;;5032588;28;20474;-41
2023/08/07 00:14:12;;;;;;;12.63;12.13;;;;;;;;;;5032193;28;20523;-41
2023/08/07 00:16:39;;;;;;;12.90;12.00;;;;;;;;;;5032267;28;20997;-43
2023/08/07 00:19:07;;;;;;;12.47;11.90;;;;;;;;;;5032617;28;20460;-43
2023/08/07 00:21:35;;;;;;;13.77;12.97;;;;;;;;;;5032876;28;20431;-40
2023/08/07 00:24:04;;;;;;;14.87;14.07;;;;;;;;;;5032668;28;20435;-44
2023/08/07 00:26:32;;;;;;;13.70;13.20;;;;;;;;;;5032303;28;20455;-43
2023/08/07 00:29:00;;;;;;;13.87;13.17;;;;;;;;;;5032240;28;20526;-41
2023/08/07 00:31:30;;;;;;;13.07;12.33;;;;;;;;;;5032301;28;20940;-43
2023/08/07 00:33:59;;;;;;;14.60;14.00;;;;;;;;;;5032497;28;20444;-43
2023/08/07 00:36:28;;;;;;;13.53;13.03;;;;;;;;;;5032334;28;20795;-41
2023/08/07 00:38:56;;;;;;;13.40;12.87;;;;;;;;;;5031837;28;20442;-41
2023/08/07 00:41:25;;;;;;;14.20;13.70;;;;;;;;;;5032341;28;20918;-41
2023/08/07 00:43:52;;;;;;;14.77;14.17;;;;;;;;;;5032451;28;20910;-42
2023/08/07 00:46:20;;;;;;;13.90;13.30;;;;;;;;;;5032400;28;20993;-41
2023/08/07 00:48:47;;;;;;;14.43;13.73;;;;;;;;;;5031727;28;20496;-41
2023/08/07 00:51:15;;;;;;;15.40;14.77;;;;;;;;;;5031878;28;20489;-42
2023/08/07 00:53:43;;;;;;;15.50;14.80;;;;;;;;;;5031923;28;20436;-41
2023/08/07 00:56:10;;;;;;;16.17;15.57;;;;;;;;;;5031824;28;20560;-41
2023/08/07 00:58:40;;;;;;;16.40;15.70;;;;;;;;;;5032055;28;20432;-41
2023/08/07 01:01:08;;;;;;;16.87;16.07;;;;;;;;;;5031421;28;20502;-41
2023/08/07 01:03:35;;;;;;;16.53;15.57;;;;;;;;;;5031899;28;20436;-42
2023/08/07 01:06:03;;;;;;;17.00;16.30;;;;;;;;;;5031279;28;20452;-44
2023/08/07 01:08:30;;;;;;;17.20;16.50;;;;;;;;;;5031759;28;20506;-41
2023/08/07 01:11:08;;;;;;;18.57;17.23;;;;;;;;;;5031347;28;20496;-45
2023/08/07 01:13:39;;;;;;;17.67;16.87;;;;;;;;;;5031820;28;20455;-42
2023/08/07 01:16:10;;;;;;;17.47;16.80;;;;;;;;;;5031583;28;20460;-42
2023/08/07 01:18:39;;;;;;;18.53;17.83;;;;;;;;;;5031436;28;20428;-44
2023/08/07 01:21:06;;;;;;;18.37;17.37;;;;;;;;;;5030989;28;20522;-42
2023/08/07 01:23:35;;;;;;;18.63;17.93;;;;;;;;;;5031242;28;20505;-42
2023/08/07 01:26:03;;;;;;;17.63;16.83;;;;;;;;;;5031141;28;20452;-42
2023/08/07 01:28:33;;;;;;;17.80;17.10;;;;;;;;;;5031523;28;20562;-41
2023/08/07 01:31:04;;;;;;;19.43;18.30;;;;;;;;;;5030941;28;20495;-42
2023/08/07 01:33:33;;;;;;;18.97;18.07;;;;;;;;;;5031346;28;20522;-41
2023/08/07 01:36:03;;;;;;;18.03;17.33;;;;;;;;;;5031819;28;20858;-42
2023/08/07 01:38:30;;;;;;;23.40;18.63;;;;;;;;;;5031751;28;20510;-42
2023/08/07 01:40:59;;;;;;;19.30;18.30;;;;;;;;;;5030936;28;20487;-45
2023/08/07 01:43:27;;;;;;;18.80;17.97;;;;;;;;;;5031076;28;20523;-41
2023/08/07 01:45:55;;;;;;;18.90;18.00;;;;;;;;;;5031556;28;20456;-41
2023/08/07 01:48:22;;;;;;;18.10;17.30;;;;;;;;;;5031284;28;20429;-41
2023/08/07 01:50:54;;;;;;;18.43;17.47;;;;;;;;;;5030192;28;20464;-41
2023/08/07 01:53:22;;;;;;;18.27;17.37;;;;;;;;;;5031039;28;20474;-41
2023/08/07 01:55:49;;;;;;;17.23;16.50;;;;;;;;;;5031287;28;20455;-41
2023/08/07 01:58:18;;;;;;;17.83;16.73;;;;;;;;;;5031135;28;20498;-43
2023/08/07 02:00:46;;;;;;;18.20;17.40;;;;;;;;;;5030787;28;20486;-40
2023/08/07 02:03:14;;;;;;;18.20;16.90;;;;;;;;;;5030637;28;20986;-42
2023/08/07 02:05:42;;;;;;;17.67;16.67;;;;;;;;;;5031184;28;20547;-42
2023/08/07 02:08:09;;;;;;;19.07;17.83;;;;;;;;;;5031129;28;20432;-43
2023/08/07 02:10:37;;;;;;;19.17;18.03;;;;;;;;;;5030344;28;20563;-44
2023/08/07 02:13:04;;;;;;;17.63;16.70;;;;;;;;;;5030951;28;20458;-43
2023/08/07 02:15:33;;;;;;;18.20;17.20;;;;;;;;;;5031215;28;20506;-42
2023/08/07 02:18:01;;;;;;;19.63;18.40;;;;;;;;;;5031067;28;20436;-43
2023/08/07 02:20:29;;;;;;;19.60;18.67;;;;;;;;;;5030599;28;20509;-44
2023/08/07 02:22:56;;;;;;;18.70;17.73;;;;;;;;;;5030375;28;20440;-42
2023/08/07 02:25:24;;;;;;;18.40;17.60;;;;;;;;;;5030623;28;20464;-43
2023/08/07 02:27:51;;;;;;;19.20;17.70;;;;;;;;;;5030810;28;21013;-44
2023/08/07 02:30:19;;;;;;;18.33;17.60;;;;;;;;;;5030545;28;20464;-41
2023/08/07 02:32:48;;;;;;;19.77;18.37;;;;;;;;;;5030597;28;20523;-41
2023/08/07 02:35:15;;;;;;;17.77;16.70;;;;;;;;;;5030809;28;20523;-45
2023/08/07 02:37:43;;;;;;;19.30;18.50;;;;;;;;;;5030786;28;20468;-42
2023/08/07 02:40:15;;;;;;;19.30;18.20;;;;;;;;;;5034515;28;20463;-41
2023/08/07 02:42:42;;;;;;;20.23;19.20;;;;;;;;;;5034165;28;20942;-41
2023/08/07 02:45:10;;;;;;;19.33;18.03;;;;;;;;;;5034389;28;20456;-41
2023/08/07 02:47:38;;;;;;;19.30;17.97;;;;;;;;;;5034220;28;20462;-41
2023/08/07 02:50:07;;;;;;;19.13;17.30;;;;;;;;;;5033932;28;20518;-42
2023/08/07 02:52:35;;;;;;;18.87;17.73;;;;;;;;;;5033976;28;20436;-41
2023/08/07 02:55:02;;;;;;;19.33;18.00;;;;;;;;;;5034067;28;20816;-42
2023/08/07 02:57:30;;;;;;;19.40;18.07;;;;;;;;;;5034092;28;20424;-41
2023/08/07 02:59:58;;;;;;;19.50;18.50;;;;;;;;;;5033835;28;20460;-43
2023/08/07 03:02:25;;;;;;;19.97;18.53;;;;;;;;;;5033719;28;20471;-41
2023/08/07 03:04:53;;;;;;;18.97;17.93;;;;;;;;;;5033600;28;20443;-41
2023/08/07 03:07:22;;;;;;;19.07;17.97;;;;;;;;;;5034298;28;20436;-41
2023/08/07 03:09:49;;;;;;;19.33;18.33;;;;;;;;;;5033212;28;21163;-41
2023/08/07 03:12:17;;;;;;;19.03;18.23;;;;;;;;;;5033999;28;20869;-41
2023/08/07 03:14:44;;;;;;;18.13;17.43;;;;;;;;;;5033877;28;20494;-44
2023/08/07 03:17:12;;;;;;;20.03;19.00;;;;;;;;;;5033586;28;20436;-41
2023/08/07 03:19:41;;;;;;;20.20;19.00;;;;;;;;;;5033387;28;20491;-42
2023/08/07 03:22:08;;;;;;;20.17;19.07;;;;;;;;;;5033236;28;20931;-41
2023/08/07 03:24:37;;;;;;;20.63;19.23;;;;;;;;;;5033486;28;20436;-42
2023/08/07 03:27:05;;;;;;;20.30;19.30;;;;;;;;;;5033664;28;20938;-43
2023/08/07 03:29:33;;;;;;;20.10;19.10;;;;;;;;;;5032133;28;20468;-42
2023/08/07 03:32:00;;;;;;;21.03;20.00;;;;;;;;;;5030841;28;20440;-43
2023/08/07 03:34:28;;;;;;;20.60;19.57;;;;;;;;;;5032926;28;20440;-41
2023/08/07 03:36:55;;;;;;;20.70;19.40;;;;;;;;;;5033308;28;20491;-44
2023/08/07 03:39:24;;;;;;;22.20;20.80;;;;;;;;;;5033022;28;20473;-41
2023/08/07 03:41:53;;;;;;;21.23;19.70;;;;;;;;;;5033150;28;20440;-43
2023/08/07 03:44:21;;;;;;;20.90;20.10;;;;;;;;;;5033324;28;20459;-44
2023/08/07 03:46:48;;;;;;;20.60;19.30;;;;;;;;;;5032975;28;20467;-42
2023/08/07 03:49:16;;;;;;;20.70;19.67;;;;;;;;;;5032767;28;20456;-41
2023/08/07 03:51:44;;;;;;;19.13;18.10;;;;;;;;;;5033113;28;20510;-41
2023/08/07 03:54:11;;;;;;;22.00;20.10;;;;;;;;;;5032995;28;20491;-41
2023/08/07 03:56:39;;;;;;;21.03;20.03;;;;;;;;;;5033284;28;20456;-42
2023/08/07 03:59:08;;;;;;;19.30;18.40;;;;;;;;;;5032212;28;20686;-43
2023/08/07 04:01:35;;;;;;;21.90;20.27;;;;;;;;;;5032694;28;20455;-44
2023/08/07 04:04:03;;;;;;;21.33;19.80;;;;;;;;;;5032801;28;20468;-41
2023/08/07 04:06:31;;;;;;;21.53;20.33;;;;;;;;;;5032665;28;20458;-41
2023/08/07 04:08:58;;;;;;;22.30;20.80;;;;;;;;;;5032372;28;20790;-43
2023/08/07 04:11:26;;;;;;;22.27;20.73;;;;;;;;;;5032270;28;20985;-41
2023/08/07 04:13:54;;;;;;;21.17;20.10;;;;;;;;;;5032744;28;20439;-43
2023/08/07 04:16:22;;;;;;;22.20;20.70;;;;;;;;;;5033108;28;20460;-41
2023/08/07 04:18:51;;;;;;;21.77;20.20;;;;;;;;;;5032189;28;20448;-41
2023/08/07 04:21:19;;;;;;;22.40;20.90;;;;;;;;;;5032507;28;20432;-41
2023/08/07 04:23:46;;;;;;;22.97;20.77;;;;;;;;;;5032052;28;20435;-43
2023/08/07 04:26:14;;;;;;;22.47;21.17;;;;;;;;;;5032152;28;20962;-42
2023/08/07 04:28:42;;;;;;;21.00;19.60;;;;;;;;;;5032600;28;20436;-40
2023/08/07 04:31:09;;;;;;;23.47;21.50;;;;;;;;;;5031813;28;20563;-42
2023/08/07 04:33:38;;;;;;;21.10;19.60;;;;;;;;;;5032181;28;20922;-41
2023/08/07 04:36:06;;;;;;;23.00;21.37;;;;;;;;;;5032109;28;20460;-42
2023/08/07 04:38:34;;;;;;;22.50;20.93;;;;;;;;;;5032175;28;20850;-42
2023/08/07 04:41:03;;;;;;;22.50;20.80;;;;;;;;;;5030589;28;20552;-43
2023/08/07 04:43:31;;;;;;;25.70;21.60;;;;;;;;;;5032002;28;20433;-44
2023/08/07 04:45:58;;;;;;;21.67;20.33;;;;;;;;;;5031720;28;20530;-46
2023/08/07 04:48:26;;;;;;;22.70;21.20;;;;;;;;;;5031940;28;20992;-43
2023/08/07 04:50:55;;;;;;;21.47;19.90;;;;;;;;;;5031400;28;20472;-46
2023/08/07 04:53:23;;;;;;;23.47;21.97;;;;;;;;;;5031694;28;20455;-47
2023/08/07 04:55:50;;;;;;;21.30;20.03;;;;;;;;;;5031628;28;20981;-41
2023/08/07 04:58:18;;;;;;;22.03;20.47;;;;;;;;;;5031536;28;20468;-41
2023/08/07 05:00:45;;;;;;;20.53;18.77;;;;;;;;;;5031155;28;20460;-42
2023/08/07 05:03:15;;;;;;;21.57;19.87;;;;;;;;;;5031715;28;20428;-41
2023/08/07 05:05:43;;;;;;;22.60;20.73;;;;;;;;;;5031223;28;20464;-42
2023/08/07 05:08:12;;;;;;;21.33;19.80;;;;;;;;;;5031657;28;20513;-45
2023/08/07 05:10:39;;;;;;;22.87;21.47;;;;;;;;;;5031313;28;20480;-41
2023/08/07 05:13:06;;;;;;;23.43;21.70;;;;;;;;;;5031332;28;20464;-42
2023/08/07 05:15:34;;;;;;;21.50;19.90;;;;;;;;;;5031851;28;20456;-42
2023/08/07 05:18:02;;;;;;;19.60;18.10;;;;;;;;;;5031442;28;20547;-43
2023/08/07 05:20:29;;;;;;;22.47;20.60;;;;;;;;;;5031214;28;20464;-46
2023/08/07 05:22:57;;;;;;;22.63;20.70;;;;;;;;;;5031518;28;20440;-42
2023/08/07 05:25:26;;;;;;;20.57;19.23;;;;;;;;;;5031920;28;20544;-42
2023/08/07 05:27:54;;;;;;;22.97;20.77;;;;;;;;;;5031877;28;20479;-45
2023/08/07 05:30:21;;;;;;;21.00;19.50;;;;;;;;;;5031201;28;20539;-41
2023/08/07 05:32:49;;;;;;;21.87;19.97;;;;;;;;;;5031293;28;20930;-46
2023/08/07 05:35:16;;;;;;;24.80;20.60;;;;;;;;;;5031624;28;20460;-45
2023/08/07 05:37:44;;;;;;;21.87;20.13;;;;;;;;;;5031950;28;20462;-42
2023/08/07 05:40:12;;;;;;;22.73;20.63;;;;;;;;;;5031456;28;20563;-42
2023/08/07 05:42:41;;;;;;;23.50;21.10;;;;;;;;;;5031505;28;21004;-42
2023/08/07 05:45:10;;;;;;;22.07;20.20;;;;;;;;;;5031664;28;20917;-47
2023/08/07 05:47:38;;;;;;;22.53;20.93;;;;;;;;;;5031582;28;20509;-42
2023/08/07 05:50:06;;;;;;;22.50;20.73;;;;;;;;;;5031307;28;20840;-42
2023/08/07 05:52:33;;;;;;;23.70;22.00;;;;;;;;;;5031211;28;20468;-42
2023/08/07 05:55:01;;;;;;;22.60;20.80;;;;;;;;;;5031765;28;20854;-44
2023/08/07 05:57:29;;;;;;;24.57;22.07;;;;;;;;;;5031172;28;20506;-42
2023/08/07 05:59:58;;;;;;;23.20;21.30;;;;;;;;;;5031294;28;20823;-42
2023/08/07 06:02:26;;;;;;;21.63;20.30;;;;;;;;;;5031466;28;20455;-43
2023/08/07 06:04:54;;;;;;;25.60;23.57;;;;;;;;;;5031354;28;20498;-43
2023/08/07 06:07:21;;;;;;;22.93;21.43;;;;;;;;;;5031180;28;20519;-42
2023/08/07 06:09:49;;;;;;;23.40;21.60;;;;;;;;;;5030947;28;20569;-42
2023/08/07 06:12:16;;;;;;;23.03;21.20;;;;;;;;;;5031452;28;20566;-42
2023/08/07 06:14:44;;;;;;;24.40;22.00;;;;;;;;;;5035292;28;20436;-44
2023/08/07 06:17:13;;;;;;;21.47;19.60;;;;;;;;;;5035537;28;20435;-44
2023/08/07 06:19:40;;;;;;;21.70;19.90;;;;;;;;;;5034969;28;21072;-44
2023/08/07 06:22:08;;;;;;;22.47;21.10;;;;;;;;;;5034753;28;20522;-42
2023/08/07 06:24:35;;;;;;;24.87;21.60;;;;;;;;;;5035241;28;21025;-42
2023/08/07 06:27:03;;;;;;;23.50;20.50;;;;;;;;;;5035213;28;20876;-45
2023/08/07 06:29:30;;;;;;;22.67;21.07;;;;;;;;;;5034519;28;20456;-42
2023/08/07 06:31:58;;;;;;;22.33;21.03;;;;;;;;;;5034472;28;20467;-42
2023/08/07 06:34:27;;;;;;;23.07;21.40;;;;;;;;;;5035044;28;20486;-43
2023/08/07 06:36:55;;;;;;;22.43;20.27;;;;;;;;;;5034524;28;20448;-43
2023/08/07 06:39:22;;;;;;;23.80;21.87;;;;;;;;;;5034332;28;20483;-44
2023/08/07 06:41:50;;;;;;;24.47;22.30;;;;;;;;;;5035126;28;20919;-41
2023/08/07 06:44:17;;;;;;;22.83;21.23;;;;;;;;;;5034457;28;20489;-42
2023/08/07 06:46:45;;;;;;;23.97;21.77;;;;;;;;;;5034474;28;20456;-44
2023/08/07 06:49:12;;;;;;;22.70;21.17;;;;;;;;;;5034232;28;20452;-42
2023/08/07 06:51:41;;;;;;;24.47;22.60;;;;;;;;;;5033984;28;20510;-43
2023/08/07 06:54:09;;;;;;;23.67;21.90;;;;;;;;;;5034177;28;20475;-43
2023/08/07 06:56:38;;;;;;;23.97;21.83;;;;;;;;;;5034078;28;20521;-42
2023/08/07 06:59:05;;;;;;;22.23;20.73;;;;;;;;;;5033974;28;20486;-42
2023/08/07 07:01:33;;;;;;;22.00;20.57;;;;;;;;;;5033977;28;20482;-45
2023/08/07 07:04:00;;;;;;;22.77;20.57;;;;;;;;;;5034061;28;20437;-42
2023/08/07 07:06:28;;;;;;;21.83;20.27;;;;;;;;;;5033845;28;20479;-42
2023/08/07 07:08:57;;;;;;;25.23;21.93;;;;;;;;;;5033658;28;21186;-44
2023/08/07 07:11:24;;;;;;;23.03;21.13;;;;;;;;;;5033764;28;20436;-42
2023/08/07 07:13:52;;;;;;;23.97;22.10;;;;;;;;;;5034110;28;20923;-43
2023/08/07 07:16:21;;;;;;;24.00;21.90;;;;;;;;;;5033788;28;20591;-47
2023/08/07 07:18:50;;;;;;;25.13;23.10;;;;;;;;;;5033391;28;20444;-41
2023/08/07 07:21:18;;;;;;;26.53;22.07;;;;;;;;;;5033728;28;20436;-43
2023/08/07 07:23:45;;;;;;;23.47;21.70;;;;;;;;;;5033267;28;20486;-43
2023/08/07 07:26:14;;;;;;;24.03;21.00;;;;;;;;;;5033881;28;20869;-42
2023/08/07 07:28:41;;;;;;;23.40;21.30;;;;;;;;;;5033666;28;20455;-43
2023/08/07 07:31:11;;;;;;;23.63;21.43;;;;;;;;;;5033067;28;20487;-43
2023/08/07 07:33:41;;;;;;;22.77;20.67;;;;;;;;;;5033377;28;21024;-43
2023/08/07 07:36:14;;;;;;;25.43;23.17;;;;;;;;;;5033398;28;20541;-42
2023/08/07 07:38:41;;;;;;;25.30;23.00;;;;;;;;;;5033748;28;20857;-45
2023/08/07 07:41:14;;;;;;;24.13;21.93;;;;;;;;;;5033253;28;20452;-42
2023/08/07 07:43:41;;;;;;;29.60;22.37;;;;;;;;;;5033468;28;20439;-43
2023/08/07 07:46:10;;;;;;;25.73;22.03;;;;;;;;;;5033096;28;20957;-43
2023/08/07 07:48:38;;;;;;;23.50;21.47;;;;;;;;;;5033483;28;20435;-42
2023/08/07 07:51:05;;;;;;;22.67;20.67;;;;;;;;;;5032866;28;20513;-42
2023/08/07 07:53:33;;;;;;;21.43;19.70;;;;;;;;;;5033126;28;20514;-44
2023/08/07 07:56:00;;;;;;;21.97;20.17;;;;;;;;;;5033076;28;20452;-44
2023/08/07 07:58:29;;;;;;;22.07;19.87;;;;;;;;;;5032959;28;20439;-43
2023/08/07 08:00:57;;;;;;;21.50;19.87;;;;;;;;;;5032646;28;20490;-42
2023/08/07 08:03:24;;;;;;;22.73;20.60;;;;;;;;;;5032963;28;20463;-45
2023/08/07 08:05:52;;;;;;;23.67;21.40;;;;;;;;;;5033063;28;20455;-42
2023/08/07 08:08:20;;;;;;;24.03;22.00;;;;;;;;;;5032954;28;20463;-42
2023/08/07 08:10:47;;;;;;;22.20;20.70;;;;;;;;;;5032478;28;20827;-43
2023/08/07 08:13:16;;;;;;;21.93;19.93;;;;;;;;;;5032543;28;20475;-43
2023/08/07 08:15:45;;;;;;;22.00;20.27;;;;;;;;;;5033082;28;20478;-42
2023/08/07 08:18:13;;;;;;;21.30;19.40;;;;;;;;;;5032857;28;20861;-41
2023/08/07 08:20:40;;;;;;;21.90;19.50;;;;;;;;;;5032404;28;20464;-43
2023/08/07 08:23:08;;;;;;;21.23;19.50;;;;;;;;;;5032403;28;20530;-43
2023/08/07 08:25:36;;;;;;;21.00;18.93;;;;;;;;;;5032480;28;21017;-42
2023/08/07 08:28:03;;;;;;;19.63;18.03;;;;;;;;;;5032507;28;20805;-43
2023/08/07 08:30:33;;;;;;;26.47;20.93;;;;;;;;;;5032144;28;20895;-42
2023/08/07 08:33:02;;;;;;;19.13;17.50;;;;;;;;;;5032134;28;20570;-45
2023/08/07 08:35:30;;;;;;;18.80;16.90;;;;;;;;;;5031547;28;20462;-42
2023/08/07 08:37:57;;;;;;;19.70;17.27;;;;;;;;;;5032375;28;20436;-42
2023/08/07 08:40:25;;;;;;;17.90;16.20;;;;;;;;;;5031874;28;20487;-41
2023/08/07 08:42:53;;;;;;;16.17;14.30;;;;;;;;;;5032084;28;20436;-44
2023/08/07 08:45:21;;;;;;;20.33;13.87;;;;;;;;;;5032226;28;20865;-42
2023/08/07 08:47:50;;;;;;;17.27;13.20;;;;;;;;;;5032308;28;20436;-41
2023/08/07 08:50:19;;;;;;;14.30;12.97;;;;;;;;;;5031976;28;20803;-44
2023/08/07 08:52:47;;;;;;;18.27;13.00;;;;;;;;;;5031773;28;20475;-42
2023/08/07 08:55:15;;;;;;;15.83;11.50;;;;;;;;;;5031982;28;20968;-42
2023/08/07 08:57:43;;;;;;;14.87;12.00;;;;;;;;;;5032195;28;20439;-42
2023/08/07 09:00:17;;;;;;;15.20;11.50;;;;;;;;;;5031621;28;20463;-44
2023/08/07 09:02:45;;;;;;;14.97;10.70;;;;;;;;;;5031801;28;20518;-42
2023/08/07 09:05:13;;;;;;;19.80;12.57;;;;;;;;;;5031571;28;20535;-42
2023/08/07 09:07:42;;;;;;;16.33;11.40;;;;;;;;;;5032196;28;20462;-42
2023/08/07 09:10:11;;;;;;;13.43;11.03;;;;;;;;;;5031659;28;20483;-43
2023/08/07 09:12:41;;;;;;;17.23;11.30;;;;;;;;;;5031513;28;20482;-43
2023/08/07 09:15:10;;;;;;;17.13;12.03;;;;;;;;;;5031780;28;20462;-42
2023/08/07 09:17:39;;;;;;;10.37;9.10;;;;;;;;;;5031641;28;20436;-42
2023/08/07 09:20:10;;;;;;;18.00;10.07;;;;;;;;;;5031295;28;20478;-44
2023/08/07 09:22:38;;;;;;;15.80;11.60;;;;;;;;;;5031633;28;20443;-43
2023/08/07 09:25:09;;;;;;;11.37;9.77;;;;;;;;;;5031605;28;20547;-44
2023/08/07 09:27:38;;;;;;;14.87;10.37;;;;;;;;;;5031576;28;20471;-43
2023/08/07 09:30:07;;;;;;;12.67;9.67;;;;;;;;;;5031321;28;20455;-43
2023/08/07 09:32:34;;;;;;;16.97;10.50;;;;;;;;;;5031125;28;20440;-43
2023/08/07 09:35:03;;;;;;;18.40;9.17;;;;;;;;;;5031817;28;20452;-45
2023/08/07 09:37:30;;;;;;;14.80;9.00;;;;;;;;;;5031401;28;20914;-43
2023/08/07 09:40:00;;;;;;;18.13;9.97;;;;;;;;;;5031295;28;20596;-45
2023/08/07 09:42:31;;;;;;;19.43;10.23;;;;;;;;;;5031163;28;20520;-43
2023/08/07 09:44:59;;;;;;;24.83;9.87;;;;;;;;;;5031956;28;20451;-43
2023/08/07 09:47:28;;;;;;;9.90;8.90;;;;;;;;;;5033269;28;20442;-42
2023/08/07 09:49:56;;;;;;;11.73;9.17;;;;;;;;;;5035254;28;20996;-43
2023/08/07 09:52:25;;;;;;;10.27;9.10;;;;;;;;;;5035311;28;20435;-42
2023/08/07 09:54:56;;;;;;;17.03;9.40;;;;;;;;;;5035356;28;20549;-43
2023/08/07 09:57:23;;;;;;;15.30;9.73;;;;;;;;;;5035256;28;20428;-43
2023/08/07 09:59:52;;;;;;;13.93;10.37;;;;;;;;;;5035040;28;20463;-41
2023/08/07 10:02:20;;;;;;;14.00;9.53;;;;;;;;;;5035198;28;20432;-42
2023/08/07 10:04:49;;;;;;;10.07;9.07;;;;;;;;;;5034966;28;20432;-43
2023/08/07 10:07:16;;;;;;;10.77;9.87;;;;;;;;;;5035053;28;20865;-41
2023/08/07 10:09:44;;;;;;;11.17;10.03;;;;;;;;;;5034827;28;20490;-42
2023/08/07 10:12:12;;;;;;;13.93;9.07;;;;;;;;;;5034807;28;20485;-45
2023/08/07 10:14:41;;;;;;;9.70;8.77;;;;;;;;;;5035056;28;20485;-42
2023/08/07 10:17:10;;;;;;;10.00;9.03;;;;;;;;;;5034939;28;20489;-43
2023/08/07 10:19:38;;;;;;;14.00;9.60;;;;;;;;;;5034621;28;20803;-43
2023/08/07 10:22:06;;;;;;;10.43;8.07;;;;;;;;;;5034862;28;20447;-42
2023/08/07 10:24:36;;;;;;;12.33;9.50;;;;;;;;;;5035078;28;20482;-44
2023/08/07 10:27:04;;;;;;;16.83;9.23;;;;;;;;;;5034813;28;20435;-42
2023/08/07 10:29:32;;;;;;;9.03;8.20;;;;;;;;;;5034507;28;20459;-42
2023/08/07 10:31:59;;;;;;;11.73;8.90;;;;;;;;;;5034433;28;20562;-44
2023/08/07 10:34:31;;;;;;;11.20;9.77;;;;;;;;;;5034542;28;20471;-43
2023/08/07 10:36:58;;;;;;;14.40;9.37;;;;;;;;;;5034418;28;20535;-48
2023/08/07 10:39:26;;;;;;;16.80;10.17;;;;;;;;;;5034051;28;20482;-46
2023/08/07 10:41:54;;;;;;;14.27;9.30;;;;;;;;;;5034513;28;20426;-42
2023/08/07 10:44:22;;;;;;;10.83;8.10;;;;;;;;;;5034528;28;20436;-45
2023/08/07 10:46:50;;;;;;;18.20;9.53;;;;;;;;;;5034992;28;20517;-42
2023/08/07 10:49:32;;;;;;;15.53;9.67;;;;;;;;;;5033827;28;20467;-42
2023/08/07 10:52:02;;;;;;;12.20;8.83;;;;;;;;;;5034325;28;20435;-44
2023/08/07 10:54:29;;;;;;;15.50;8.97;;;;;;;;;;5034447;28;20506;-44
2023/08/07 10:56:57;;;;;;;11.17;8.70;;;;;;;;;;5034761;28;20846;-44
2023/08/07 10:59:25;;;;;;;9.87;8.00;;;;;;;;;;5033004;28;20459;-43
2023/08/07 11:01:55;;;;;;;14.67;9.10;;;;;;;;;;5034179;28;20447;-42
2023/08/07 11:04:24;;;;;;;10.67;9.67;;;;;;;;;;5034505;28;20463;-42
2023/08/07 11:06:53;;;;;;;18.53;9.00;;;;;;;;;;5034292;28;20479;-45
2023/08/07 11:09:21;;;;;;;12.47;9.57;;;;;;;;;;5034237;28;20474;-44
2023/08/07 11:11:49;;;;;;;12.20;11.10;;;;;;;;;;5034102;28;20513;-45
2023/08/07 11:14:18;;;;;;;18.00;10.87;;;;;;;;;;5033887;28;20467;-43
2023/08/07 11:16:46;;;;;;;15.50;11.13;;;;;;;;;;5034144;28;20901;-42
2023/08/07 11:19:14;;;;;;;11.50;10.50;;;;;;;;;;5034042;28;20463;-42
2023/08/07 11:21:43;;;;;;;17.60;11.07;;;;;;;;;;5033818;28;20436;-43
2023/08/07 11:24:13;;;;;;;11.93;10.63;;;;;;;;;;5034585;28;20432;-45
2023/08/07 11:26:40;;;;;;;14.50;10.90;;;;;;;;;;5034083;28;20455;-42
2023/08/07 11:29:09;;;;;;;14.43;10.27;;;;;;;;;;5033692;28;20447;-43
2023/08/07 11:31:36;;;;;;;16.27;10.23;;;;;;;;;;5033971;28;20509;-45
2023/08/07 11:34:04;;;;;;;11.07;10.10;;;;;;;;;;5034061;28;20472;-44
2023/08/07 11:36:33;;;;;;;25.03;10.60;;;;;;;;;;5034119;28;20440;-45
2023/08/07 11:39:01;;;;;;;14.10;9.97;;;;;;;;;;5033565;28;20459;-44
2023/08/07 11:41:32;;;;;;;13.03;9.73;;;;;;;;;;5033730;28;20501;-46
2023/08/07 11:44:00;;;;;;;10.67;9.60;;;;;;;;;;5034041;28;20439;-44
2023/08/07 11:46:28;;;;;;;13.53;10.70;;;;;;;;;;5033748;28;20510;-43
2023/08/07 11:48:56;;;;;;;11.50;10.40;;;;;;;;;;5033998;28;20472;-45
2023/08/07 11:51:24;;;;;;;19.90;10.60;;;;;;;;;;5033409;28;20459;-42
2023/08/07 11:53:56;;;;;;;11.60;10.47;;;;;;;;;;5033643;28;20862;-45
2023/08/07 11:56:23;;;;;;;12.57;9.20;;;;;;;;;;5033271;28;20559;-43
2023/08/07 11:58:53;;;;;;;11.40;9.33;;;;;;;;;;5033449;28;20467;-45
2023/08/07 12:01:21;;;;;;;15.60;9.67;;;;;;;;;;5033062;28;20427;-42
2023/08/07 12:03:54;;;;;;;14.57;9.30;;;;;;;;;;5033326;28;20479;-43
2023/08/07 12:06:22;;;;;;;19.73;10.73;;;;;;;;;;5033124;28;20448;-44
2023/08/07 12:08:50;;;;;;;9.23;8.30;;;;;;;;;;5032515;28;20456;-43
2023/08/07 12:11:18;;;;;;;12.67;8.33;;;;;;;;;;5033478;28;20510;-44
2023/08/07 12:13:46;;;;;;;12.73;8.87;;;;;;;;;;5033279;28;20498;-43
2023/08/07 12:16:16;;;;;;;10.13;8.70;;;;;;;;;;5033342;28;20546;-42
2023/08/07 12:18:44;;;;;;;10.70;9.60;;;;;;;;;;5033454;28;20971;-42
2023/08/07 12:21:14;;;;;;;9.83;8.90;;;;;;;;;;5032831;28;20483;-42
2023/08/07 12:23:41;;;;;;;14.70;8.20;;;;;;;;;;5033249;28;20439;-43
2023/08/07 12:26:11;;;;;;;10.97;9.70;;;;;;;;;;5033310;28;20455;-46
2023/08/07 12:28:39;;;;;;;10.83;8.30;;;;;;;;;;5033143;28;20846;-42
2023/08/07 12:31:06;;;;;;;12.00;10.80;;;;;;;;;;5032925;28;20890;-44
2023/08/07 12:33:35;;;;;;;10.57;9.47;;;;;;;;;;5032570;28;20427;-44
2023/08/07 12:36:03;;;;;;;14.90;9.50;;;;;;;;;;5033465;28;20479;-45
2023/08/07 12:38:31;;;;;;;10.47;9.23;;;;;;;;;;5033179;28;20493;-42
2023/08/07 12:40:59;;;;;;;17.30;9.00;;;;;;;;;;5032474;28;20495;-42
2023/08/07 12:43:26;;;;;;;16.83;9.67;;;;;;;;;;5032962;28;20432;-42
2023/08/07 12:45:54;;;;;;;11.13;9.10;;;;;;;;;;5033068;28;20464;-42
2023/08/07 12:48:43;;;;;;;14.63;8.60;;;;;;;;;;5032834;28;20438;-42
2023/08/07 12:51:10;;;;;;;12.60;9.10;;;;;;;;;;5032042;28;20815;-42
2023/08/07 12:53:38;;;;;;;12.27;9.87;;;;;;;;;;5032809;28;20439;-43
2023/08/07 12:56:05;;;;;;;13.43;8.93;;;;;;;;;;5032953;28;20471;-42
2023/08/07 12:58:34;;;;;;;14.57;9.23;;;;;;;;;;5032675;28;20446;-42
2023/08/07 13:01:01;;;;;;;12.33;9.27;;;;;;;;;;5032354;28;20472;-41
2023/08/07 13:03:29;;;;;;;14.03;9.03;;;;;;;;;;5032863;28;20428;-42
2023/08/07 13:05:58;;;;;;;19.27;10.03;;;;;;;;;;5032636;28;20456;-42
2023/08/07 13:08:26;;;;;;;11.23;9.23;;;;;;;;;;5012952;28;20487;-42
2023/08/07 13:10:53;;;;;;;16.60;11.20;;;;;;;;;;5012461;28;20514;-43
2023/08/07 13:13:21;;;;;;;14.00;10.33;;;;;;;;;;5013058;28;20433;-44
2023/08/07 13:15:49;;;;;;;11.10;9.60;;;;;;;;;;5012823;28;20898;-42
2023/08/07 13:18:16;;;;;;;12.50;10.30;;;;;;;;;;5012915;28;20459;-43
2023/08/07 13:20:44;;;;;;;14.60;9.30;;;;;;;;;;5012278;28;20496;-42
2023/08/07 13:23:13;;;;;;;11.70;9.07;;;;;;;;;;5012028;28;20445;-42
2023/08/07 13:25:41;;;;;;;10.50;8.40;;;;;;;;;;5012669;28;20864;-42
2023/08/07 13:28:08;;;;;;;12.60;9.53;;;;;;;;;;5012715;28;20490;-42
2023/08/07 13:30:36;;;;;;;14.47;9.60;;;;;;;;;;5012283;28;20460;-43
2023/08/07 13:33:04;;;;;;;9.03;8.10;;;;;;;;;;5012553;28;20436;-43
2023/08/07 13:35:32;;;;;;;11.50;8.70;;;;;;;;;;5012153;28;20472;-43
2023/08/07 13:38:04;;;;;;;12.73;7.37;;;;;;;;;;5012790;28;20432;-43
2023/08/07 13:40:34;;;;;;;8.10;6.57;;;;;;;;;;5012123;28;21230;-42
2023/08/07 13:43:07;;;;;;;8.90;7.83;;;;;;;;;;5012662;28;20490;-43
2023/08/07 13:45:35;;;;;;;9.57;7.33;;;;;;;;;;5012558;28;20457;-45
2023/08/07 13:48:03;;;;;;;12.10;8.10;;;;;;;;;;5011971;28;20997;-43
2023/08/07 13:50:31;;;;;;;12.13;7.07;;;;;;;;;;5012164;28;20469;-45
2023/08/07 13:52:58;;;;;;;7.87;6.23;;;;;;;;;;5011341;28;20440;-43
2023/08/07 13:55:42;;;;;;;10.87;7.80;;;;;;;;;;5012505;28;20530;-42
2023/08/07 13:58:10;;;;;;;9.17;7.03;;;;;;;;;;5012300;28;20468;-45
2023/08/07 14:00:38;;;;;;;8.63;7.10;;;;;;;;;;5011816;28;20465;-44
2023/08/07 14:03:06;;;;;;;9.90;6.87;;;;;;;;;;5012167;28;20439;-42
2023/08/07 14:05:34;;;;;;;8.93;6.07;;;;;;;;;;5026253;28;20814;-42
2023/08/07 14:08:02;;;;;;;11.80;7.40;;;;;;;;;;5032049;28;20438;-42
2023/08/07 14:10:29;;;;;;;10.57;6.47;;;;;;;;;;5031331;28;20471;-42
2023/08/07 14:12:58;;;;;;;10.07;6.60;;;;;;;;;;5031576;28;20431;-47
2023/08/07 14:15:26;;;;;;;15.20;5.87;;;;;;;;;;5031653;28;20889;-42
2023/08/07 14:17:53;;;;;;;11.93;8.03;;;;;;;;;;5031553;28;20434;-44
2023/08/07 14:20:21;;;;;;;9.80;7.60;;;;;;;;;;5031267;28;20459;-42
2023/08/07 14:22:49;;;;;;;12.30;7.90;;;;;;;;;;5031094;28;20444;-45
2023/08/07 14:25:17;;;;;;;11.67;6.70;;;;;;;;;;5031722;28;20451;-43
2023/08/07 14:27:44;;;;;;;17.83;7.93;;;;;;;;;;5031851;28;20436;-44